To NAV CANADA Home Page Login to a new session Search on AWWS site Feedback and Comments Disclaimer Vers la page française équivalente Tips FAQ What's new on the site To the Forecasts and Observations / NOTAM section To "File a Flight Plan" website Publications and other links Update of the User's profile FIC Telephone Numbers My Weather Data Folder Route Weather Data Regional Weather Data Local Weather Data To the Forecasts and Observations / NOTAM section
Request Generated 04/30/2017 at 05:11:34 UTC . Weather information available at that time is displayed.

METAR/TAF

MONCTON/GREATER MONCTON ROMEO LEBLANC INTL/NB    

METAR CYQM 300500Z 31014G24KT 15SM SKC 06/M02 A2991 RMK SLP131=
METAR CYQM 300400Z 32015G26KT 15SM SKC 07/M01 A2988 RMK PRESRR
SLP122=
METAR CYQM 300300Z 31019KT 15SM FEW080 08/M00 A2983 RMK AC1 SLP105=

TAF AMD CYQM 300135Z 3001/3024 35015G25KT P6SM SCT050 TEMPO 3001/3003
BKN050
BECMG 3003/3005 35012G22KT
FM301500 36012KT P6SM FEW030
BECMG 3018/3020 05008KT
BECMG 3022/3024 09006KT
RMK NXT FCST BY 300600Z=
Your time UTC time
Weather data provided by Environment Canada and NAV CANADA